sensor_id;sensor_type;location;lat;lon;timestamp;P1;durP1;ratioP1;P2;durP2;ratioP2
40150;SDS011;25866;52.420;10.640;2023-08-21T00:01:39;6.93;;;4.10;;
40150;SDS011;25866;52.420;10.640;2023-08-21T00:04:18;7.25;;;3.90;;
40150;SDS011;25866;52.420;10.640;2023-08-21T00:06:45;5.53;;;3.85;;
40150;SDS011;25866;52.420;10.640;2023-08-21T00:12:09;8.65;;;3.92;;
40150;SDS011;25866;52.420;10.640;2023-08-21T00:17:05;9.57;;;3.97;;
40150;SDS011;25866;52.420;10.640;2023-08-21T00:22:16;7.07;;;3.67;;
40150;SDS011;25866;52.420;10.640;2023-08-21T00:24:42;7.95;;;3.58;;
40150;SDS011;25866;52.420;10.640;2023-08-21T00:27:16;8.35;;;3.78;;
40150;SDS011;25866;52.420;10.640;2023-08-21T00:32:18;7.07;;;4.25;;
40150;SDS011;25866;52.420;10.640;2023-08-21T00:34:45;4.30;;;3.42;;
40150;SDS011;25866;52.420;10.640;2023-08-21T00:37:22;9.15;;;4.20;;
40150;SDS011;25866;52.420;10.640;2023-08-21T00:39:48;6.65;;;4.13;;
40150;SDS011;25866;52.420;10.640;2023-08-21T00:42:23;8.75;;;3.80;;
40150;SDS011;25866;52.420;10.640;2023-08-21T00:47:24;5.97;;;4.13;;
40150;SDS011;25866;52.420;10.640;2023-08-21T00:49:53;6.63;;;4.03;;
40150;SDS011;25866;52.420;10.640;2023-08-21T00:52:21;6.95;;;4.47;;
40150;SDS011;25866;52.420;10.640;2023-08-21T00:54:47;7.78;;;4.63;;
40150;SDS011;25866;52.420;10.640;2023-08-21T00:57:15;7.78;;;4.10;;
40150;SDS011;25866;52.420;10.640;2023-08-21T00:59:41;7.35;;;3.95;;
40150;SDS011;25866;52.420;10.640;2023-08-21T01:02:06;7.20;;;4.13;;
40150;SDS011;25866;52.420;10.640;2023-08-21T01:04:32;9.07;;;4.22;;
40150;SDS011;25866;52.420;10.640;2023-08-21T01:06:58;6.57;;;3.90;;
40150;SDS011;25866;52.420;10.640;2023-08-21T01:09:26;6.55;;;3.92;;
40150;SDS011;25866;52.420;10.640;2023-08-21T01:14:45;6.90;;;4.07;;
40150;SDS011;25866;52.420;10.640;2023-08-21T01:17:19;7.47;;;4.25;;
40150;SDS011;25866;52.420;10.640;2023-08-21T01:19:48;5.25;;;4.18;;
40150;SDS011;25866;52.420;10.640;2023-08-21T01:22:17;7.30;;;4.60;;
40150;SDS011;25866;52.420;10.640;2023-08-21T01:24:43;6.38;;;4.55;;
40150;SDS011;25866;52.420;10.640;2023-08-21T01:27:10;6.53;;;4.28;;
40150;SDS011;25866;52.420;10.640;2023-08-21T01:29:39;6.07;;;4.20;;
40150;SDS011;25866;52.420;10.640;2023-08-21T01:35:12;6.00;;;4.28;;
40150;SDS011;25866;52.420;10.640;2023-08-21T01:37:39;8.48;;;4.38;;
40150;SDS011;25866;52.420;10.640;2023-08-21T01:40:05;7.57;;;4.47;;
40150;SDS011;25866;52.420;10.640;2023-08-21T01:42:31;9.93;;;4.57;;
40150;SDS011;25866;52.420;10.640;2023-08-21T01:44:57;6.28;;;4.40;;
40150;SDS011;25866;52.420;10.640;2023-08-21T01:47:25;7.78;;;4.38;;
40150;SDS011;25866;52.420;10.640;2023-08-21T01:49:51;6.93;;;4.20;;
40150;SDS011;25866;52.420;10.640;2023-08-21T01:52:18;7.88;;;4.40;;
40150;SDS011;25866;52.420;10.640;2023-08-21T01:54:44;8.05;;;4.68;;
40150;SDS011;25866;52.420;10.640;2023-08-21T01:57:09;8.15;;;4.63;;
40150;SDS011;25866;52.420;10.640;2023-08-21T01:59:35;8.80;;;5.05;;
40150;SDS011;25866;52.420;10.640;2023-08-21T02:02:01;6.50;;;4.60;;
40150;SDS011;25866;52.420;10.640;2023-08-21T02:04:27;8.45;;;4.78;;
40150;SDS011;25866;52.420;10.640;2023-08-21T02:06:53;8.80;;;4.55;;
40150;SDS011;25866;52.420;10.640;2023-08-21T02:09:27;9.57;;;4.63;;
40150;SDS011;25866;52.420;10.640;2023-08-21T02:11:53;7.93;;;4.38;;
40150;SDS011;25866;52.420;10.640;2023-08-21T02:14:18;6.22;;;4.50;;
40150;SDS011;25866;52.420;10.640;2023-08-21T02:16:47;7.40;;;4.50;;
40150;SDS011;25866;52.420;10.640;2023-08-21T02:19:13;10.73;;;5.00;;
40150;SDS011;25866;52.420;10.640;2023-08-21T02:21:39;6.93;;;4.47;;
40150;SDS011;25866;52.420;10.640;2023-08-21T02:24:05;6.70;;;4.80;;
40150;SDS011;25866;52.420;10.640;2023-08-21T02:26:31;5.95;;;4.05;;
40150;SDS011;25866;52.420;10.640;2023-08-21T02:28:57;17.98;;;4.75;;
40150;SDS011;25866;52.420;10.640;2023-08-21T02:31:23;7.13;;;4.25;;
40150;SDS011;25866;52.420;10.640;2023-08-21T02:33:48;15.27;;;4.68;;
40150;SDS011;25866;52.420;10.640;2023-08-21T02:36:18;5.40;;;4.70;;
40150;SDS011;25866;52.420;10.640;2023-08-21T02:38:45;5.93;;;4.60;;
40150;SDS011;25866;52.420;10.640;2023-08-21T02:41:11;7.18;;;4.60;;
40150;SDS011;25866;52.420;10.640;2023-08-21T02:43:38;9.73;;;4.68;;
40150;SDS011;25866;52.420;10.640;2023-08-21T02:46:04;6.63;;;4.85;;
40150;SDS011;25866;52.420;10.640;2023-08-21T02:51:01;5.88;;;4.95;;
40150;SDS011;25866;52.420;10.640;2023-08-21T02:53:28;5.47;;;4.97;;
40150;SDS011;25866;52.420;10.640;2023-08-21T02:55:54;7.53;;;5.05;;
40150;SDS011;25866;52.420;10.640;2023-08-21T02:58:20;6.32;;;4.65;;
40150;SDS011;25866;52.420;10.640;2023-08-21T03:00:46;8.40;;;5.18;;
40150;SDS011;25866;52.420;10.640;2023-08-21T03:03:12;6.28;;;4.43;;
40150;SDS011;25866;52.420;10.640;2023-08-21T03:05:38;6.85;;;5.38;;
40150;SDS011;25866;52.420;10.640;2023-08-21T03:08:10;5.72;;;4.70;;
40150;SDS011;25866;52.420;10.640;2023-08-21T03:10:36;9.18;;;4.90;;
40150;SDS011;25866;52.420;10.640;2023-08-21T03:13:02;7.53;;;5.32;;
40150;SDS011;25866;52.420;10.640;2023-08-21T03:15:28;6.85;;;5.07;;
40150;SDS011;25866;52.420;10.640;2023-08-21T03:20:25;6.32;;;4.45;;
40150;SDS011;25866;52.420;10.640;2023-08-21T03:22:51;6.78;;;5.00;;
40150;SDS011;25866;52.420;10.640;2023-08-21T03:25:17;7.38;;;5.10;;
40150;SDS011;25866;52.420;10.640;2023-08-21T03:27:42;5.68;;;4.47;;
40150;SDS011;25866;52.420;10.640;2023-08-21T03:30:10;8.65;;;5.30;;
40150;SDS011;25866;52.420;10.640;2023-08-21T03:32:40;8.25;;;4.90;;
40150;SDS011;25866;52.420;10.640;2023-08-21T03:35:06;5.05;;;4.35;;
40150;SDS011;25866;52.420;10.640;2023-08-21T03:37:32;6.82;;;4.50;;
40150;SDS011;25866;52.420;10.640;2023-08-21T03:40:02;5.82;;;4.50;;
40150;SDS011;25866;52.420;10.640;2023-08-21T03:42:28;9.02;;;4.78;;
40150;SDS011;25866;52.420;10.640;2023-08-21T03:44:54;5.07;;;4.28;;
40150;SDS011;25866;52.420;10.640;2023-08-21T03:47:20;11.40;;;4.53;;
40150;SDS011;25866;52.420;10.640;2023-08-21T03:52:15;4.80;;;4.30;;
40150;SDS011;25866;52.420;10.640;2023-08-21T03:54:41;5.20;;;4.10;;
40150;SDS011;25866;52.420;10.640;2023-08-21T03:57:06;6.60;;;4.60;;
40150;SDS011;25866;52.420;10.640;2023-08-21T03:59:35;5.68;;;4.35;;
40150;SDS011;25866;52.420;10.640;2023-08-21T04:02:02;8.48;;;4.55;;
40150;SDS011;25866;52.420;10.640;2023-08-21T04:04:27;7.75;;;4.80;;
40150;SDS011;25866;52.420;10.640;2023-08-21T04:06:53;8.80;;;5.10;;
40150;SDS011;25866;52.420;10.640;2023-08-21T04:09:31;12.18;;;4.90;;
40150;SDS011;25866;52.420;10.640;2023-08-21T04:11:57;6.32;;;4.30;;
40150;SDS011;25866;52.420;10.640;2023-08-21T04:14:29;5.38;;;4.20;;
40150;SDS011;25866;52.420;10.640;2023-08-21T04:17:05;4.88;;;4.05;;
40150;SDS011;25866;52.420;10.640;2023-08-21T04:19:32;7.05;;;4.53;;
40150;SDS011;25866;52.420;10.640;2023-08-21T04:21:59;8.82;;;4.40;;
40150;SDS011;25866;52.420;10.640;2023-08-21T04:24:24;8.38;;;4.80;;
40150;SDS011;25866;52.420;10.640;2023-08-21T04:26:50;4.93;;;4.43;;
40150;SDS011;25866;52.420;10.640;2023-08-21T04:29:16;7.45;;;4.60;;
40150;SDS011;25866;52.420;10.640;2023-08-21T04:31:41;7.35;;;4.68;;
40150;SDS011;25866;52.420;10.640;2023-08-21T04:34:07;5.30;;;4.78;;
40150;SDS011;25866;52.420;10.640;2023-08-21T04:36:33;9.18;;;5.10;;
40150;SDS011;25866;52.420;10.640;2023-08-21T04:41:27;7.00;;;5.07;;
40150;SDS011;25866;52.420;10.640;2023-08-21T04:43:53;7.10;;;5.50;;
40150;SDS011;25866;52.420;10.640;2023-08-21T04:46:19;9.98;;;6.35;;
40150;SDS011;25866;52.420;10.640;2023-08-21T04:48:45;8.18;;;5.55;;
40150;SDS011;25866;52.420;10.640;2023-08-21T04:51:16;7.47;;;5.75;;
40150;SDS011;25866;52.420;10.640;2023-08-21T04:53:53;6.60;;;5.43;;
40150;SDS011;25866;52.420;10.640;2023-08-21T04:56:18;7.68;;;5.47;;
40150;SDS011;25866;52.420;10.640;2023-08-21T04:58:56;6.55;;;5.07;;
40150;SDS011;25866;52.420;10.640;2023-08-21T05:01:22;7.28;;;5.75;;
40150;SDS011;25866;52.420;10.640;2023-08-21T05:03:48;8.10;;;5.00;;
40150;SDS011;25866;52.420;10.640;2023-08-21T05:06:13;7.43;;;5.15;;
40150;SDS011;25866;52.420;10.640;2023-08-21T05:08:40;7.72;;;4.90;;
40150;SDS011;25866;52.420;10.640;2023-08-21T05:11:06;6.93;;;4.80;;
40150;SDS011;25866;52.420;10.640;2023-08-21T05:13:31;5.43;;;4.68;;
40150;SDS011;25866;52.420;10.640;2023-08-21T05:15:57;7.53;;;5.22;;
40150;SDS011;25866;52.420;10.640;2023-08-21T05:18:24;8.55;;;5.72;;
40150;SDS011;25866;52.420;10.640;2023-08-21T05:20:53;10.50;;;5.65;;
40150;SDS011;25866;52.420;10.640;2023-08-21T05:23:20;10.13;;;6.13;;
40150;SDS011;25866;52.420;10.640;2023-08-21T05:25:47;11.32;;;5.90;;
40150;SDS011;25866;52.420;10.640;2023-08-21T05:28:13;8.13;;;5.90;;
40150;SDS011;25866;52.420;10.640;2023-08-21T05:30:43;9.45;;;5.93;;
40150;SDS011;25866;52.420;10.640;2023-08-21T05:33:13;10.38;;;5.97;;
40150;SDS011;25866;52.420;10.640;2023-08-21T05:35:45;12.20;;;7.55;;
40150;SDS011;25866;52.420;10.640;2023-08-21T05:38:11;9.43;;;6.10;;
40150;SDS011;25866;52.420;10.640;2023-08-21T05:40:49;11.65;;;5.95;;
40150;SDS011;25866;52.420;10.640;2023-08-21T05:43:16;11.07;;;7.13;;
40150;SDS011;25866;52.420;10.640;2023-08-21T05:45:43;8.57;;;6.47;;
40150;SDS011;25866;52.420;10.640;2023-08-21T05:48:18;12.05;;;7.18;;
40150;SDS011;25866;52.420;10.640;2023-08-21T05:50:50;9.60;;;6.50;;
40150;SDS011;25866;52.420;10.640;2023-08-21T05:53:17;10.20;;;6.75;;
40150;SDS011;25866;52.420;10.640;2023-08-21T05:55:42;6.88;;;6.15;;
40150;SDS011;25866;52.420;10.640;2023-08-21T05:58:08;11.10;;;7.10;;
40150;SDS011;25866;52.420;10.640;2023-08-21T06:03:13;11.13;;;7.28;;
40150;SDS011;25866;52.420;10.640;2023-08-21T06:05:44;9.15;;;6.10;;
40150;SDS011;25866;52.420;10.640;2023-08-21T06:08:12;13.18;;;7.05;;
40150;SDS011;25866;52.420;10.640;2023-08-21T06:10:39;8.52;;;6.40;;
40150;SDS011;25866;52.420;10.640;2023-08-21T06:13:10;10.32;;;7.15;;
40150;SDS011;25866;52.420;10.640;2023-08-21T06:15:43;10.75;;;6.35;;
40150;SDS011;25866;52.420;10.640;2023-08-21T06:18:11;12.30;;;6.50;;
40150;SDS011;25866;52.420;10.640;2023-08-21T06:20:49;8.80;;;6.30;;
40150;SDS011;25866;52.420;10.640;2023-08-21T06:23:19;8.45;;;6.00;;
40150;SDS011;25866;52.420;10.640;2023-08-21T06:25:48;9.43;;;6.47;;
40150;SDS011;25866;52.420;10.640;2023-08-21T06:28:24;10.45;;;6.25;;
40150;SDS011;25866;52.420;10.640;2023-08-21T06:33:48;9.25;;;6.32;;
40150;SDS011;25866;52.420;10.640;2023-08-21T06:36:30;7.85;;;5.43;;
40150;SDS011;25866;52.420;10.640;2023-08-21T06:38:59;7.20;;;5.50;;
40150;SDS011;25866;52.420;10.640;2023-08-21T06:41:26;9.25;;;5.63;;
40150;SDS011;25866;52.420;10.640;2023-08-21T06:43:52;11.75;;;6.10;;
40150;SDS011;25866;52.420;10.640;2023-08-21T06:46:17;8.90;;;5.55;;
40150;SDS011;25866;52.420;10.640;2023-08-21T06:48:43;9.93;;;5.47;;
40150;SDS011;25866;52.420;10.640;2023-08-21T06:51:11;6.13;;;5.03;;
40150;SDS011;25866;52.420;10.640;2023-08-21T06:53:37;9.77;;;5.18;;
40150;SDS011;25866;52.420;10.640;2023-08-21T06:56:02;11.63;;;5.35;;
40150;SDS011;25866;52.420;10.640;2023-08-21T06:58:28;7.60;;;4.88;;
40150;SDS011;25866;52.420;10.640;2023-08-21T07:03:33;6.53;;;4.50;;
40150;SDS011;25866;52.420;10.640;2023-08-21T07:05:59;5.40;;;4.45;;
40150;SDS011;25866;52.420;10.640;2023-08-21T07:08:26;8.75;;;4.80;;
40150;SDS011;25866;52.420;10.640;2023-08-21T07:10:59;6.53;;;4.15;;
40150;SDS011;25866;52.420;10.640;2023-08-21T07:13:29;7.32;;;4.32;;
40150;SDS011;25866;52.420;10.640;2023-08-21T07:15:54;6.63;;;4.28;;
40150;SDS011;25866;52.420;10.640;2023-08-21T07:18:20;6.03;;;4.00;;
40150;SDS011;25866;52.420;10.640;2023-08-21T07:20:52;9.48;;;4.13;;
40150;SDS011;25866;52.420;10.640;2023-08-21T07:23:18;6.57;;;3.92;;
40150;SDS011;25866;52.420;10.640;2023-08-21T07:25:44;6.30;;;4.13;;
40150;SDS011;25866;52.420;10.640;2023-08-21T07:28:09;8.10;;;4.25;;
40150;SDS011;25866;52.420;10.640;2023-08-21T07:30:37;8.40;;;3.42;;
40150;SDS011;25866;52.420;10.640;2023-08-21T07:33:04;8.07;;;3.45;;
40150;SDS011;25866;52.420;10.640;2023-08-21T07:35:32;9.77;;;3.25;;
40150;SDS011;25866;52.420;10.640;2023-08-21T07:37:59;6.75;;;2.97;;
40150;SDS011;25866;52.420;10.640;2023-08-21T07:43:15;8.18;;;2.90;;
40150;SDS011;25866;52.420;10.640;2023-08-21T07:45:40;5.85;;;3.60;;
40150;SDS011;25866;52.420;10.640;2023-08-21T07:48:06;4.97;;;2.60;;
40150;SDS011;25866;52.420;10.640;2023-08-21T07:50:34;6.40;;;2.90;;
40150;SDS011;25866;52.420;10.640;2023-08-21T07:53:00;6.10;;;2.78;;
40150;SDS011;25866;52.420;10.640;2023-08-21T07:55:26;8.25;;;2.88;;
40150;SDS011;25866;52.420;10.640;2023-08-21T07:57:51;5.78;;;2.80;;
40150;SDS011;25866;52.420;10.640;2023-08-21T08:00:19;11.90;;;3.25;;
40150;SDS011;25866;52.420;10.640;2023-08-21T08:02:45;5.97;;;2.58;;
40150;SDS011;25866;52.420;10.640;2023-08-21T08:05:11;9.50;;;3.03;;
40150;SDS011;25866;52.420;10.640;2023-08-21T08:07:36;3.63;;;2.40;;
40150;SDS011;25866;52.420;10.640;2023-08-21T08:10:02;6.63;;;2.75;;
40150;SDS011;25866;52.420;10.640;2023-08-21T08:12:28;7.05;;;2.65;;
40150;SDS011;25866;52.420;10.640;2023-08-21T08:14:54;7.43;;;2.80;;
40150;SDS011;25866;52.420;10.640;2023-08-21T08:17:19;8.63;;;3.05;;
40150;SDS011;25866;52.420;10.640;2023-08-21T08:19:45;9.23;;;2.88;;
40150;SDS011;25866;52.420;10.640;2023-08-21T08:22:16;5.82;;;2.60;;
40150;SDS011;25866;52.420;10.640;2023-08-21T08:24:42;7.05;;;2.85;;
40150;SDS011;25866;52.420;10.640;2023-08-21T08:27:07;7.95;;;2.67;;
40150;SDS011;25866;52.420;10.640;2023-08-21T08:29:33;6.10;;;2.90;;
40150;SDS011;25866;52.420;10.640;2023-08-21T08:31:59;4.28;;;2.15;;
40150;SDS011;25866;52.420;10.640;2023-08-21T08:34:25;7.32;;;2.80;;
40150;SDS011;25866;52.420;10.640;2023-08-21T08:36:50;5.00;;;2.50;;
40150;SDS011;25866;52.420;10.640;2023-08-21T08:39:16;4.57;;;2.47;;
40150;SDS011;25866;52.420;10.640;2023-08-21T08:44:21;6.40;;;3.03;;
40150;SDS011;25866;52.420;10.640;2023-08-21T08:46:50;6.78;;;2.70;;
40150;SDS011;25866;52.420;10.640;2023-08-21T08:49:17;4.80;;;2.60;;
40150;SDS011;25866;52.420;10.640;2023-08-21T08:51:43;7.32;;;3.00;;
40150;SDS011;25866;52.420;10.640;2023-08-21T08:54:09;5.15;;;2.90;;
40150;SDS011;25866;52.420;10.640;2023-08-21T08:56:37;4.18;;;2.20;;
40150;SDS011;25866;52.420;10.640;2023-08-21T08:59:03;5.30;;;2.58;;
40150;SDS011;25866;52.420;10.640;2023-08-21T09:01:31;5.75;;;2.40;;
40150;SDS011;25866;52.420;10.640;2023-08-21T09:03:57;5.95;;;2.70;;
40150;SDS011;25866;52.420;10.640;2023-08-21T09:06:23;5.10;;;2.20;;
40150;SDS011;25866;52.420;10.640;2023-08-21T09:08:56;5.10;;;2.53;;
40150;SDS011;25866;52.420;10.640;2023-08-21T09:11:32;6.18;;;2.60;;
40150;SDS011;25866;52.420;10.640;2023-08-21T09:13:58;7.47;;;2.50;;
40150;SDS011;25866;52.420;10.640;2023-08-21T09:16:24;4.07;;;2.38;;
40150;SDS011;25866;52.420;10.640;2023-08-21T09:18:55;6.90;;;2.63;;
40150;SDS011;25866;52.420;10.640;2023-08-21T09:24:22;8.13;;;2.35;;
40150;SDS011;25866;52.420;10.640;2023-08-21T09:26:49;3.97;;;1.83;;
40150;SDS011;25866;52.420;10.640;2023-08-21T09:29:15;5.35;;;1.65;;
40150;SDS011;25866;52.420;10.640;2023-08-21T09:31:43;8.23;;;1.95;;
40150;SDS011;25866;52.420;10.640;2023-08-21T09:34:10;5.43;;;1.88;;
40150;SDS011;25866;52.420;10.640;2023-08-21T09:36:36;6.13;;;2.10;;
40150;SDS011;25866;52.420;10.640;2023-08-21T09:39:04;5.10;;;1.90;;
40150;SDS011;25866;52.420;10.640;2023-08-21T09:41:33;3.60;;;1.55;;
40150;SDS011;25866;52.420;10.640;2023-08-21T09:43:59;6.50;;;1.88;;
40150;SDS011;25866;52.420;10.640;2023-08-21T09:46:26;3.40;;;1.63;;
40150;SDS011;25866;52.420;10.640;2023-08-21T09:48:53;5.47;;;1.70;;
40150;SDS011;25866;52.420;10.640;2023-08-21T09:51:35;6.32;;;1.60;;
40150;SDS011;25866;52.420;10.640;2023-08-21T09:54:01;5.60;;;1.85;;
40150;SDS011;25866;52.420;10.640;2023-08-21T09:56:28;6.50;;;1.52;;
40150;SDS011;25866;52.420;10.640;2023-08-21T09:58:54;3.45;;;1.50;;
40150;SDS011;25866;52.420;10.640;2023-08-21T10:01:28;5.15;;;1.63;;
40150;SDS011;25866;52.420;10.640;2023-08-21T10:03:59;5.80;;;1.63;;
40150;SDS011;25866;52.420;10.640;2023-08-21T10:06:28;4.15;;;1.55;;
40150;SDS011;25866;52.420;10.640;2023-08-21T10:08:55;6.15;;;1.85;;
40150;SDS011;25866;52.420;10.640;2023-08-21T10:11:23;4.80;;;1.50;;
40150;SDS011;25866;52.420;10.640;2023-08-21T10:13:48;7.18;;;2.00;;
40150;SDS011;25866;52.420;10.640;2023-08-21T10:16:16;4.68;;;1.45;;
40150;SDS011;25866;52.420;10.640;2023-08-21T10:18:43;3.33;;;1.48;;
40150;SDS011;25866;52.420;10.640;2023-08-21T10:21:17;5.00;;;1.60;;
40150;SDS011;25866;52.420;10.640;2023-08-21T10:23:50;6.78;;;1.77;;
40150;SDS011;25866;52.420;10.640;2023-08-21T10:26:20;4.25;;;1.55;;
40150;SDS011;25866;52.420;10.640;2023-08-21T10:28:51;6.97;;;1.83;;
40150;SDS011;25866;52.420;10.640;2023-08-21T10:34:09;7.10;;;1.55;;
40150;SDS011;25866;52.420;10.640;2023-08-21T10:47:53;5.93;;;1.58;;
40150;SDS011;25866;52.420;10.640;2023-08-21T10:49:57;3.38;;;1.20;;
40150;SDS011;25866;52.420;10.640;2023-08-21T10:52:35;5.47;;;1.50;;
40150;SDS011;25866;52.420;10.640;2023-08-21T10:55:03;7.40;;;1.50;;
40150;SDS011;25866;52.420;10.640;2023-08-21T10:57:29;5.55;;;1.55;;
40150;SDS011;25866;52.420;10.640;2023-08-21T10:59:57;4.53;;;1.35;;
40150;SDS011;25866;52.420;10.640;2023-08-21T11:02:27;5.72;;;1.40;;
40150;SDS011;25866;52.420;10.640;2023-08-21T11:04:57;7.00;;;1.42;;
40150;SDS011;25866;52.420;10.640;2023-08-21T11:07:24;4.32;;;1.50;;
40150;SDS011;25866;52.420;10.640;2023-08-21T11:09:51;8.98;;;1.52;;
40150;SDS011;25866;52.420;10.640;2023-08-21T11:14:48;8.05;;;1.60;;
40150;SDS011;25866;52.420;10.640;2023-08-21T11:17:14;5.55;;;1.40;;
40150;SDS011;25866;52.420;10.640;2023-08-21T11:19:41;5.63;;;1.35;;
40150;SDS011;25866;52.420;10.640;2023-08-21T11:22:10;5.55;;;1.17;;
40150;SDS011;25866;52.420;10.640;2023-08-21T11:27:02;3.67;;;1.50;;
40150;SDS011;25866;52.420;10.640;2023-08-21T11:29:38;7.75;;;1.83;;
40150;SDS011;25866;52.420;10.640;2023-08-21T11:34:50;8.80;;;1.55;;
40150;SDS011;25866;52.420;10.640;2023-08-21T11:37:22;5.70;;;1.08;;
40150;SDS011;25866;52.420;10.640;2023-08-21T11:39:50;4.93;;;1.35;;
40150;SDS011;25866;52.420;10.640;2023-08-21T11:42:19;3.95;;;1.02;;
40150;SDS011;25866;52.420;10.640;2023-08-21T11:44:46;5.15;;;1.30;;
40150;SDS011;25866;52.420;10.640;2023-08-21T11:47:15;8.15;;;1.67;;
40150;SDS011;25866;52.420;10.640;2023-08-21T11:49:42;3.53;;;1.13;;
40150;SDS011;25866;52.420;10.640;2023-08-21T11:52:10;4.78;;;1.30;;
40150;SDS011;25866;52.420;10.640;2023-08-21T11:54:37;5.43;;;1.60;;
40150;SDS011;25866;52.420;10.640;2023-08-21T11:57:11;4.70;;;1.40;;
40150;SDS011;25866;52.420;10.640;2023-08-21T11:59:38;3.75;;;1.23;;
40150;SDS011;25866;52.420;10.640;2023-08-21T12:02:25;6.32;;;1.70;;
40150;SDS011;25866;52.420;10.640;2023-08-21T12:05:03;5.93;;;1.33;;
40150;SDS011;25866;52.420;10.640;2023-08-21T12:07:30;4.32;;;1.10;;
40150;SDS011;25866;52.420;10.640;2023-08-21T12:09:56;3.22;;;0.82;;
40150;SDS011;25866;52.420;10.640;2023-08-21T12:12:24;4.70;;;1.23;;
40150;SDS011;25866;52.420;10.640;2023-08-21T12:14:50;4.63;;;1.20;;
40150;SDS011;25866;52.420;10.640;2023-08-21T12:17:16;4.13;;;1.33;;
40150;SDS011;25866;52.420;10.640;2023-08-21T12:19:42;4.30;;;1.10;;
40150;SDS011;25866;52.420;10.640;2023-08-21T12:22:08;5.35;;;1.27;;
40150;SDS011;25866;52.420;10.640;2023-08-21T12:24:35;4.18;;;1.10;;
40150;SDS011;25866;52.420;10.640;2023-08-21T12:27:04;6.70;;;1.30;;
40150;SDS011;25866;52.420;10.640;2023-08-21T12:29:31;4.07;;;1.35;;
40150;SDS011;25866;52.420;10.640;2023-08-21T12:31:57;4.60;;;1.23;;
40150;SDS011;25866;52.420;10.640;2023-08-21T12:37:19;6.32;;;1.20;;
40150;SDS011;25866;52.420;10.640;2023-08-21T12:39:46;6.95;;;1.50;;
40150;SDS011;25866;52.420;10.640;2023-08-21T12:42:12;6.03;;;1.20;;
40150;SDS011;25866;52.420;10.640;2023-08-21T12:44:40;3.70;;;1.27;;
40150;SDS011;25866;52.420;10.640;2023-08-21T12:47:06;3.55;;;1.10;;
40150;SDS011;25866;52.420;10.640;2023-08-21T12:49:31;6.82;;;1.27;;
40150;SDS011;25866;52.420;10.640;2023-08-21T12:51:58;10.20;;;1.38;;
40150;SDS011;25866;52.420;10.640;2023-08-21T12:54:39;5.43;;;1.45;;
40150;SDS011;25866;52.420;10.640;2023-08-21T12:57:05;7.07;;;1.58;;
40150;SDS011;25866;52.420;10.640;2023-08-21T12:59:32;3.33;;;1.17;;
40150;SDS011;25866;52.420;10.640;2023-08-21T13:01:58;2.88;;;1.15;;
40150;SDS011;25866;52.420;10.640;2023-08-21T13:04:30;4.93;;;1.17;;
40150;SDS011;25866;52.420;10.640;2023-08-21T13:06:56;4.45;;;1.25;;
40150;SDS011;25866;52.420;10.640;2023-08-21T13:09:22;3.47;;;1.15;;
40150;SDS011;25866;52.420;10.640;2023-08-21T13:11:51;3.25;;;0.98;;
40150;SDS011;25866;52.420;10.640;2023-08-21T13:14:20;4.40;;;1.20;;
40150;SDS011;25866;52.420;10.640;2023-08-21T13:16:45;3.50;;;1.10;;
40150;SDS011;25866;52.420;10.640;2023-08-21T13:19:11;2.72;;;1.17;;
40150;SDS011;25866;52.420;10.640;2023-08-21T13:21:37;2.03;;;0.88;;
40150;SDS011;25866;52.420;10.640;2023-08-21T13:24:03;2.25;;;0.90;;
40150;SDS011;25866;52.420;10.640;2023-08-21T13:26:29;3.03;;;0.80;;
40150;SDS011;25866;52.420;10.640;2023-08-21T13:28:56;3.53;;;1.00;;
40150;SDS011;25866;52.420;10.640;2023-08-21T13:31:22;3.40;;;0.90;;
40150;SDS011;25866;52.420;10.640;2023-08-21T13:36:18;5.70;;;1.02;;
40150;SDS011;25866;52.420;10.640;2023-08-21T13:38:46;3.08;;;1.25;;
40150;SDS011;25866;52.420;10.640;2023-08-21T13:41:13;1.67;;;0.80;;
40150;SDS011;25866;52.420;10.640;2023-08-21T13:43:47;2.95;;;0.82;;
40150;SDS011;25866;52.420;10.640;2023-08-21T13:46:14;3.88;;;0.82;;
40150;SDS011;25866;52.420;10.640;2023-08-21T13:49:01;3.28;;;0.98;;
40150;SDS011;25866;52.420;10.640;2023-08-21T13:51:49;4.68;;;1.05;;
40150;SDS011;25866;52.420;10.640;2023-08-21T13:54:21;4.05;;;0.85;;
40150;SDS011;25866;52.420;10.640;2023-08-21T13:56:47;3.03;;;0.93;;
40150;SDS011;25866;52.420;10.640;2023-08-21T13:59:13;2.42;;;0.60;;
40150;SDS011;25866;52.420;10.640;2023-08-21T14:01:38;3.22;;;1.02;;
40150;SDS011;25866;52.420;10.640;2023-08-21T14:04:11;4.55;;;1.10;;
40150;SDS011;25866;52.420;10.640;2023-08-21T14:06:37;3.00;;;1.17;;
40150;SDS011;25866;52.420;10.640;2023-08-21T14:09:03;2.17;;;0.70;;
40150;SDS011;25866;52.420;10.640;2023-08-21T14:11:28;4.25;;;1.23;;
40150;SDS011;25866;52.420;10.640;2023-08-21T14:13:55;2.05;;;0.80;;
40150;SDS011;25866;52.420;10.640;2023-08-21T14:16:21;3.42;;;0.93;;
40150;SDS011;25866;52.420;10.640;2023-08-21T14:18:46;3.30;;;1.00;;
40150;SDS011;25866;52.420;10.640;2023-08-21T14:21:15;2.28;;;1.00;;
40150;SDS011;25866;52.420;10.640;2023-08-21T14:23:45;4.72;;;1.30;;
40150;SDS011;25866;52.420;10.640;2023-08-21T14:26:11;4.50;;;1.10;;
40150;SDS011;25866;52.420;10.640;2023-08-21T14:28:37;2.72;;;1.10;;
40150;SDS011;25866;52.420;10.640;2023-08-21T14:31:03;4.93;;;1.00;;
40150;SDS011;25866;52.420;10.640;2023-08-21T14:33:31;3.30;;;0.95;;
40150;SDS011;25866;52.420;10.640;2023-08-21T14:35:58;5.35;;;1.10;;
40150;SDS011;25866;52.420;10.640;2023-08-21T14:38:24;4.50;;;1.13;;
40150;SDS011;25866;52.420;10.640;2023-08-21T14:40:58;5.55;;;1.40;;
40150;SDS011;25866;52.420;10.640;2023-08-21T14:43:24;3.45;;;1.15;;
40150;SDS011;25866;52.420;10.640;2023-08-21T14:45:50;3.42;;;1.05;;
40150;SDS011;25866;52.420;10.640;2023-08-21T14:48:17;2.58;;;1.10;;
40150;SDS011;25866;52.420;10.640;2023-08-21T14:50:43;4.60;;;1.20;;
40150;SDS011;25866;52.420;10.640;2023-08-21T14:53:09;3.17;;;1.17;;
40150;SDS011;25866;52.420;10.640;2023-08-21T14:55:36;2.30;;;0.93;;
40150;SDS011;25866;52.420;10.640;2023-08-21T14:58:02;3.70;;;1.25;;
40150;SDS011;25866;52.420;10.640;2023-08-21T15:00:34;3.83;;;1.20;;
40150;SDS011;25866;52.420;10.640;2023-08-21T15:03:00;2.97;;;1.02;;
40150;SDS011;25866;52.420;10.640;2023-08-21T15:05:27;3.17;;;1.10;;
40150;SDS011;25866;52.420;10.640;2023-08-21T15:07:53;4.00;;;1.25;;
40150;SDS011;25866;52.420;10.640;2023-08-21T15:10:20;5.68;;;1.20;;
40150;SDS011;25866;52.420;10.640;2023-08-21T15:12:46;4.15;;;1.20;;
40150;SDS011;25866;52.420;10.640;2023-08-21T15:15:12;2.85;;;1.05;;
40150;SDS011;25866;52.420;10.640;2023-08-21T15:17:38;5.30;;;1.20;;
40150;SDS011;25866;52.420;10.640;2023-08-21T15:20:04;5.75;;;1.45;;
40150;SDS011;25866;52.420;10.640;2023-08-21T15:22:32;3.85;;;1.02;;
40150;SDS011;25866;52.420;10.640;2023-08-21T15:27:31;2.80;;;1.20;;
40150;SDS011;25866;52.420;10.640;2023-08-21T15:30:22;2.60;;;1.02;;
40150;SDS011;25866;52.420;10.640;2023-08-21T15:32:50;2.75;;;0.90;;
40150;SDS011;25866;52.420;10.640;2023-08-21T15:35:17;4.28;;;1.17;;
40150;SDS011;25866;52.420;10.640;2023-08-21T15:37:43;5.45;;;1.10;;
40150;SDS011;25866;52.420;10.640;2023-08-21T15:40:11;3.75;;;1.10;;
40150;SDS011;25866;52.420;10.640;2023-08-21T15:42:37;4.20;;;1.23;;
40150;SDS011;25866;52.420;10.640;2023-08-21T15:45:04;2.63;;;1.15;;
40150;SDS011;25866;52.420;10.640;2023-08-21T15:47:31;3.55;;;1.20;;
40150;SDS011;25866;52.420;10.640;2023-08-21T15:49:57;3.70;;;0.93;;
40150;SDS011;25866;52.420;10.640;2023-08-21T15:54:54;6.63;;;1.13;;